createdAt,value
2023-05-23T00:02:00.298Z,14.91
2023-05-23T00:04:46.726Z,14.98
2023-05-23T00:07:33.462Z,14.97
2023-05-23T00:10:20.130Z,14.97
2023-05-23T00:13:09.421Z,14.82
2023-05-23T00:15:56.329Z,14.83
2023-05-23T00:18:43.219Z,14.85
2023-05-23T00:21:30.709Z,14.95
2023-05-23T00:24:18.777Z,15.01
2023-05-23T00:27:05.815Z,15.07
2023-05-23T00:29:52.214Z,15.02
2023-05-23T00:32:38.812Z,14.85
2023-05-23T00:35:25.750Z,15.02
2023-05-23T00:38:12.119Z,15.03
2023-05-23T00:40:59.099Z,15.00
2023-05-23T00:43:45.691Z,14.99
2023-05-23T00:46:32.530Z,15.09
2023-05-23T00:49:20.277Z,15.16
2023-05-23T00:52:07.011Z,15.26
2023-05-23T00:54:53.669Z,15.27
2023-05-23T00:57:41.634Z,15.34
2023-05-23T01:00:28.926Z,15.37
2023-05-23T01:03:18.595Z,15.42
2023-05-23T01:06:05.440Z,15.36
2023-05-23T01:08:52.105Z,15.42
2023-05-23T01:11:50.683Z,15.51
2023-05-23T01:14:51.500Z,15.62
2023-05-23T01:18:04.219Z,15.60
2023-05-23T01:20:59.593Z,15.61
2023-05-23T01:24:17.078Z,15.67
2023-05-23T01:27:20.374Z,15.65
2023-05-23T01:30:11.361Z,15.67
2023-05-23T01:32:59.299Z,15.64
2023-05-23T01:35:46.488Z,15.59
2023-05-23T01:38:33.068Z,15.65
2023-05-23T01:41:19.795Z,15.55
2023-05-23T01:47:10.614Z,15.65
2023-05-23T01:49:58.235Z,15.62
2023-05-23T01:52:46.887Z,15.64
2023-05-23T01:55:34.727Z,15.68
2023-05-23T01:58:22.023Z,15.56
2023-05-23T02:01:09.812Z,15.64
2023-05-23T02:03:56.838Z,15.67
2023-05-23T02:06:43.380Z,15.59
2023-05-23T02:09:32.884Z,15.67
2023-05-23T02:12:19.560Z,15.55
2023-05-23T02:15:07.587Z,15.70
2023-05-23T02:17:54.075Z,15.64
2023-05-23T02:20:40.850Z,15.51
2023-05-23T02:23:27.187Z,15.58
2023-05-23T02:26:13.770Z,15.46
2023-05-23T02:29:02.286Z,15.57
2023-05-23T02:31:49.059Z,15.56
2023-05-23T02:34:35.795Z,15.46
2023-05-23T02:37:22.378Z,15.56
2023-05-23T02:40:09.435Z,15.54
2023-05-23T02:42:57.401Z,15.56
2023-05-23T02:45:43.935Z,15.54
2023-05-23T02:48:30.303Z,15.55
2023-05-23T02:51:17.301Z,15.48
2023-05-23T02:54:03.899Z,15.50
2023-05-23T02:56:54.840Z,15.46
2023-05-23T02:59:42.046Z,15.43
2023-05-23T03:02:28.828Z,15.47
2023-05-23T03:05:15.263Z,15.61
2023-05-23T03:08:01.810Z,15.57
2023-05-23T03:10:48.519Z,15.66
2023-05-23T03:13:36.067Z,15.73
2023-05-23T03:16:23.693Z,15.61
2023-05-23T03:19:10.437Z,15.52
2023-05-23T03:21:57.011Z,15.61
2023-05-23T03:24:43.712Z,15.63
2023-05-23T03:27:30.931Z,15.67
2023-05-23T03:30:17.474Z,15.65
2023-05-23T03:33:04.547Z,15.67
2023-05-23T03:35:51.390Z,15.62
2023-05-23T03:38:37.703Z,15.62
2023-05-23T03:41:24.226Z,15.61
2023-05-23T03:44:10.806Z,15.64
2023-05-23T03:46:57.204Z,15.66
2023-05-23T03:49:45.175Z,15.70
2023-05-23T03:52:32.210Z,15.61
2023-05-23T03:55:25.433Z,15.62
2023-05-23T03:58:12.027Z,15.59
2023-05-23T04:01:02.131Z,15.72
2023-05-23T04:03:49.502Z,15.58
2023-05-23T04:06:38.268Z,15.65
2023-05-23T04:09:24.759Z,15.57
2023-05-23T04:12:12.016Z,15.57
2023-05-23T04:14:58.974Z,15.62
2023-05-23T04:17:45.415Z,15.66
2023-05-23T04:20:31.998Z,15.57
2023-05-23T04:23:19.127Z,15.62
2023-05-23T04:26:10.135Z,15.57
2023-05-23T04:29:01.915Z,15.62
2023-05-23T04:31:48.561Z,15.76
2023-05-23T04:34:35.124Z,15.65
2023-05-23T04:37:26.281Z,15.75
2023-05-23T04:40:13.574Z,15.79
2023-05-23T04:43:19.941Z,15.73
2023-05-23T04:46:15.884Z,15.88
2023-05-23T04:49:04.208Z,15.90
2023-05-23T04:51:51.194Z,15.90
2023-05-23T04:54:44.726Z,15.99
2023-05-23T04:57:31.458Z,15.97
2023-05-23T05:00:18.351Z,16.06
2023-05-23T05:03:05.479Z,16.06
2023-05-23T05:05:53.770Z,16.28
2023-05-23T05:08:43.277Z,16.23
2023-05-23T05:11:30.796Z,16.06
2023-05-23T05:14:17.478Z,16.15
2023-05-23T05:17:04.455Z,16.15
2023-05-23T05:19:59.368Z,16.32
2023-05-23T05:22:46.272Z,16.42
2023-05-23T05:25:35.774Z,16.51
2023-05-23T05:28:23.363Z,16.51
2023-05-23T05:31:15.165Z,16.51
2023-05-23T05:34:02.158Z,16.73
2023-05-23T05:36:48.716Z,16.55
2023-05-23T05:39:37.283Z,16.54
2023-05-23T05:42:25.242Z,16.56
2023-05-23T05:45:12.366Z,16.69
2023-05-23T05:48:00.404Z,16.79
2023-05-23T05:50:47.180Z,16.81
2023-05-23T05:53:33.745Z,16.90
2023-05-23T05:56:22.735Z,17.17
2023-05-23T05:59:09.225Z,17.15
2023-05-23T06:01:57.414Z,17.30
2023-05-23T06:04:44.014Z,17.35
2023-05-23T06:07:30.350Z,17.35
2023-05-23T06:10:16.795Z,17.38
2023-05-23T06:13:03.353Z,17.45
2023-05-23T06:15:50.954Z,17.50
2023-05-23T06:18:37.591Z,17.42
2023-05-23T06:21:24.176Z,17.12
2023-05-23T06:24:11.284Z,17.31
2023-05-23T06:26:57.499Z,17.09
2023-05-23T06:29:44.647Z,17.04
2023-05-23T06:32:31.158Z,17.00
2023-05-23T06:35:18.214Z,17.18
2023-05-23T06:38:04.614Z,17.12
2023-05-23T06:40:51.185Z,17.26
2023-05-23T06:43:38.620Z,17.20
2023-05-23T06:46:47.679Z,17.19
2023-05-23T06:49:35.169Z,17.11
2023-05-23T06:52:21.879Z,17.06
2023-05-23T06:55:08.860Z,17.00
2023-05-23T06:57:57.138Z,16.87
2023-05-23T07:00:44.610Z,16.64
2023-05-23T07:03:41.793Z,16.56
2023-05-23T07:06:29.176Z,16.55
2023-05-23T07:09:17.423Z,16.38
2023-05-23T07:12:03.873Z,16.03
2023-05-23T07:14:50.460Z,16.43
2023-05-23T07:17:38.237Z,16.25
2023-05-23T07:20:25.229Z,16.75
2023-05-23T07:23:17.756Z,16.81
2023-05-23T07:26:05.355Z,16.83
2023-05-23T07:29:01.104Z,16.79
2023-05-23T07:31:47.759Z,16.99
2023-05-23T07:34:34.658Z,17.14
2023-05-23T07:37:22.000Z,17.02
2023-05-23T07:40:12.181Z,16.99
2023-05-23T07:43:00.199Z,17.17
2023-05-23T07:45:46.731Z,16.94
2023-05-23T07:48:33.362Z,16.82
2023-05-23T07:51:21.359Z,16.84
2023-05-23T07:54:09.381Z,16.61
2023-05-23T07:56:59.502Z,16.64
2023-05-23T07:59:46.336Z,16.56
2023-05-23T08:02:33.435Z,16.35
2023-05-23T08:05:22.761Z,16.25
2023-05-23T08:08:12.244Z,16.27
2023-05-23T08:10:59.141Z,16.21
2023-05-23T08:13:50.491Z,16.33
2023-05-23T08:17:03.416Z,16.28
2023-05-23T08:19:50.056Z,16.07
2023-05-23T08:22:37.603Z,16.08
2023-05-23T08:25:30.232Z,16.46
2023-05-23T08:28:17.345Z,16.35
2023-05-23T08:31:12.047Z,16.42
2023-05-23T08:33:59.608Z,16.37
2023-05-23T08:36:46.073Z,16.54
2023-05-23T08:39:37.111Z,16.60
2023-05-23T08:42:43.933Z,16.52
2023-05-23T08:45:34.771Z,16.54
2023-05-23T08:48:22.744Z,16.47
2023-05-23T08:51:14.079Z,16.66
2023-05-23T08:54:01.306Z,16.77
2023-05-23T08:56:49.406Z,16.99
2023-05-23T08:59:36.804Z,17.15
2023-05-23T09:02:24.712Z,17.41
2023-05-23T09:05:15.727Z,17.57
2023-05-23T09:08:02.180Z,17.44
2023-05-23T09:10:50.038Z,17.47
2023-05-23T09:13:36.840Z,17.30
2023-05-23T09:16:34.962Z,17.61
2023-05-23T09:19:26.795Z,17.88
2023-05-23T09:22:26.052Z,18.07
2023-05-23T09:25:23.423Z,18.70
2023-05-23T09:28:09.940Z,18.71
2023-05-23T09:31:01.927Z,18.64
2023-05-23T09:33:50.930Z,18.96
2023-05-23T09:36:41.394Z,19.22
2023-05-23T09:39:28.784Z,19.12
2023-05-23T09:42:25.001Z,19.17
2023-05-23T09:45:16.242Z,18.83
2023-05-23T09:48:02.969Z,18.65
2023-05-23T09:50:51.560Z,18.37
2023-05-23T09:53:39.032Z,18.49
2023-05-23T09:56:27.013Z,18.61
2023-05-23T09:59:16.106Z,18.82
2023-05-23T10:02:03.820Z,18.86
2023-05-23T10:04:52.963Z,19.08
2023-05-23T10:07:39.804Z,18.85
2023-05-23T10:10:31.440Z,19.30
2023-05-23T10:13:19.326Z,19.33
2023-05-23T10:16:17.960Z,19.68
2023-05-23T10:19:17.960Z,19.42
2023-05-23T10:22:08.645Z,19.36
2023-05-23T10:24:55.591Z,19.66
2023-05-23T10:27:42.893Z,20.01
2023-05-23T10:30:29.650Z,20.14
2023-05-23T10:33:17.584Z,20.65
2023-05-23T10:36:10.523Z,21.10
2023-05-23T10:39:16.915Z,21.38
2023-05-23T10:42:12.005Z,21.19
2023-05-23T10:45:22.569Z,21.26
2023-05-23T10:48:23.656Z,20.78
2023-05-23T10:51:12.427Z,20.80
2023-05-23T10:53:58.890Z,20.71
2023-05-23T10:56:45.446Z,20.46
2023-05-23T10:59:32.236Z,20.48
2023-05-23T11:02:25.418Z,20.35
2023-05-23T11:05:25.044Z,20.33
2023-05-23T11:08:16.247Z,20.96
2023-05-23T11:11:04.129Z,21.16
2023-05-23T11:13:56.640Z,21.36
2023-05-23T11:16:46.389Z,21.40
2023-05-23T11:19:33.079Z,21.56
2023-05-23T11:22:20.572Z,21.32
2023-05-23T11:25:10.163Z,21.66
2023-05-23T11:27:56.978Z,21.52
2023-05-23T11:30:43.655Z,21.34
2023-05-23T11:33:30.567Z,21.05
2023-05-23T11:36:17.373Z,21.25
2023-05-23T11:39:04.505Z,21.14
2023-05-23T11:42:11.011Z,21.66
2023-05-23T11:44:58.112Z,21.55
2023-05-23T11:47:44.431Z,21.63
2023-05-23T11:50:31.024Z,21.38
2023-05-23T11:53:20.765Z,21.32
2023-05-23T11:56:08.268Z,21.31
2023-05-23T11:58:57.157Z,21.43
2023-05-23T12:01:44.840Z,21.33
2023-05-23T12:04:31.379Z,21.84
2023-05-23T12:07:20.610Z,22.00
2023-05-23T12:10:07.873Z,22.13
2023-05-23T12:12:54.527Z,22.15
2023-05-23T12:15:41.066Z,21.75
2023-05-23T12:18:32.754Z,21.83
2023-05-23T12:21:19.133Z,22.06
2023-05-23T12:24:17.238Z,22.25
2023-05-23T12:27:04.211Z,22.25
2023-05-23T12:29:53.983Z,22.46
2023-05-23T12:32:45.577Z,22.67
2023-05-23T12:35:32.304Z,22.73
2023-05-23T12:38:18.879Z,22.14
2023-05-23T12:41:09.736Z,21.68
2023-05-23T12:43:57.219Z,21.57
2023-05-23T12:46:43.666Z,21.09
2023-05-23T12:49:29.943Z,20.72
2023-05-23T12:52:16.417Z,20.31
2023-05-23T12:55:03.976Z,19.90
2023-05-23T12:57:50.915Z,19.75
2023-05-23T13:00:37.787Z,19.46
2023-05-23T13:03:25.140Z,19.22
2023-05-23T13:06:11.498Z,19.41
2023-05-23T13:08:58.641Z,19.70
2023-05-23T13:11:45.097Z,19.68
2023-05-23T13:14:31.512Z,20.17
2023-05-23T13:17:18.456Z,20.02
2023-05-23T13:20:05.381Z,19.96
2023-05-23T13:22:52.017Z,19.49
2023-05-23T13:25:38.425Z,19.59
2023-05-23T13:28:24.968Z,19.77
2023-05-23T13:31:11.738Z,19.67
2023-05-23T13:33:58.304Z,19.91
2023-05-23T13:36:44.683Z,20.12
2023-05-23T13:39:31.286Z,20.24
2023-05-23T13:42:17.943Z,20.55
2023-05-23T13:45:05.053Z,20.74
2023-05-23T13:47:51.422Z,20.80
2023-05-23T13:50:38.106Z,21.42
2023-05-23T13:53:24.581Z,21.53
2023-05-23T13:56:11.472Z,21.68
2023-05-23T13:58:57.848Z,21.87
2023-05-23T14:01:44.306Z,21.83
2023-05-23T14:04:30.745Z,21.73
2023-05-23T14:07:18.203Z,21.79
2023-05-23T14:10:05.400Z,21.70
2023-05-23T14:12:51.973Z,21.58
2023-05-23T14:15:38.840Z,21.60
2023-05-23T14:18:25.045Z,21.56
2023-05-23T14:21:11.380Z,21.69
2023-05-23T14:23:58.027Z,21.56
2023-05-23T14:26:44.612Z,21.29
2023-05-23T14:29:31.727Z,21.41
2023-05-23T14:32:18.385Z,21.46
2023-05-23T14:35:11.021Z,21.27
2023-05-23T14:37:57.412Z,21.20
2023-05-23T14:40:44.415Z,21.55
2023-05-23T14:43:31.502Z,21.43
2023-05-23T14:46:18.312Z,21.09
2023-05-23T14:49:04.816Z,20.80
2023-05-23T14:51:51.784Z,20.64
2023-05-23T14:54:43.501Z,20.32
2023-05-23T14:57:29.891Z,20.24
2023-05-23T15:00:17.444Z,20.06
2023-05-23T15:03:04.661Z,19.87
2023-05-23T15:05:51.421Z,19.77
2023-05-23T15:08:37.799Z,20.26
2023-05-23T15:11:26.672Z,20.27
2023-05-23T15:14:14.123Z,20.57
2023-05-23T15:17:07.682Z,20.75
2023-05-23T15:19:56.976Z,20.88
2023-05-23T15:22:43.996Z,20.81
2023-05-23T15:25:47.078Z,20.54
2023-05-23T15:28:35.836Z,20.22
2023-05-23T15:31:22.501Z,20.13
2023-05-23T15:34:09.098Z,20.02
2023-05-23T15:36:56.358Z,19.94
2023-05-23T15:39:43.054Z,19.76
2023-05-23T15:42:29.478Z,19.51
2023-05-23T15:45:15.904Z,19.66
2023-05-23T15:48:02.627Z,19.88
2023-05-23T15:50:49.309Z,19.92
2023-05-23T15:53:47.851Z,20.12
2023-05-23T15:56:43.061Z,20.27
2023-05-23T15:59:31.342Z,20.30
2023-05-23T16:02:19.010Z,20.17
2023-05-23T16:05:06.098Z,20.28
2023-05-23T16:07:52.718Z,20.18
2023-05-23T16:10:39.333Z,19.76
2023-05-23T16:13:25.735Z,19.72
2023-05-23T16:16:12.376Z,19.98
2023-05-23T16:18:58.684Z,20.15
2023-05-23T16:21:45.835Z,20.12
2023-05-23T16:24:32.113Z,20.13
2023-05-23T16:27:18.432Z,20.39
2023-05-23T16:30:06.206Z,20.39
2023-05-23T16:32:52.599Z,20.01
2023-05-23T16:35:39.059Z,19.67
2023-05-23T16:38:25.447Z,19.45
2023-05-23T16:41:12.017Z,19.11
2023-05-23T16:43:58.545Z,19.01
2023-05-23T16:46:45.155Z,18.99
2023-05-23T16:49:31.831Z,18.61
2023-05-23T16:52:18.350Z,18.65
2023-05-23T16:55:05.159Z,18.78
2023-05-23T16:57:51.867Z,18.71
2023-05-23T17:00:38.609Z,18.75
2023-05-23T17:03:24.974Z,18.56
2023-05-23T17:06:11.786Z,18.48
2023-05-23T17:08:58.325Z,18.35
2023-05-23T17:11:45.332Z,18.26
2023-05-23T17:14:32.313Z,18.43
2023-05-23T17:17:18.656Z,18.33
2023-05-23T17:20:05.968Z,18.32
2023-05-23T17:22:52.633Z,18.41
2023-05-23T17:25:39.403Z,18.24
2023-05-23T17:28:26.376Z,18.21
2023-05-23T17:31:12.994Z,18.05
2023-05-23T17:33:59.522Z,17.89
2023-05-23T17:36:46.064Z,17.77
2023-05-23T17:39:32.581Z,17.57
2023-05-23T17:42:19.016Z,17.32
2023-05-23T17:45:06.038Z,17.41
2023-05-23T17:47:52.869Z,17.28
2023-05-23T17:50:39.096Z,17.54
2023-05-23T17:53:27.110Z,17.55
2023-05-23T17:56:13.364Z,17.36
2023-05-23T17:59:03.275Z,17.38
2023-05-23T18:01:49.530Z,17.33
2023-05-23T18:04:35.958Z,17.33
2023-05-23T18:07:22.713Z,17.07
2023-05-23T18:10:09.636Z,17.18
2023-05-23T18:12:56.447Z,16.87
2023-05-23T18:15:42.692Z,17.12
2023-05-23T18:18:28.974Z,17.07
2023-05-23T18:21:18.009Z,16.93
2023-05-23T18:24:05.041Z,16.65
2023-05-23T18:26:51.650Z,16.65
2023-05-23T18:29:38.204Z,16.73
2023-05-23T18:32:24.625Z,16.84
2023-05-23T18:35:11.305Z,16.56
2023-05-23T18:37:57.697Z,16.51
2023-05-23T18:40:44.325Z,16.57
2023-05-23T18:43:30.721Z,16.47
2023-05-23T18:46:17.441Z,16.27
2023-05-23T18:49:04.873Z,16.31
2023-05-23T18:51:53.098Z,16.34
2023-05-23T18:54:39.315Z,16.26
2023-05-23T18:57:26.102Z,16.21
2023-05-23T19:00:13.409Z,16.12
2023-05-23T19:03:00.016Z,16.04
2023-05-23T19:05:46.593Z,15.99
2023-05-23T19:08:33.712Z,16.00
2023-05-23T19:11:20.170Z,15.86
2023-05-23T19:14:06.683Z,15.89
2023-05-23T19:16:54.994Z,16.03
2023-05-23T19:19:41.322Z,15.90
2023-05-23T19:22:36.073Z,15.78
2023-05-23T19:25:30.730Z,15.55
2023-05-23T19:28:17.398Z,15.72
2023-05-23T19:31:04.043Z,15.73
2023-05-23T19:33:50.562Z,15.48
2023-05-23T19:36:37.273Z,15.61
2023-05-23T19:39:23.674Z,15.48
2023-05-23T19:42:10.246Z,15.47
2023-05-23T19:44:57.779Z,15.35
2023-05-23T19:47:44.320Z,15.32
2023-05-23T19:50:31.450Z,15.39
2023-05-23T19:53:18.207Z,15.41
2023-05-23T19:56:05.192Z,15.12
2023-05-23T19:58:51.814Z,15.07
2023-05-23T20:01:38.426Z,15.33
2023-05-23T20:04:25.193Z,15.43
2023-05-23T20:07:11.945Z,15.26
2023-05-23T20:09:58.566Z,15.17
2023-05-23T20:12:45.667Z,15.09
2023-05-23T20:18:25.407Z,15.11
2023-05-23T20:21:12.061Z,15.11
2023-05-23T20:23:58.807Z,14.95
2023-05-23T20:26:45.815Z,15.09
2023-05-23T20:29:34.714Z,15.03
2023-05-23T20:32:20.972Z,14.88
2023-05-23T20:35:07.500Z,14.81
2023-05-23T20:37:53.824Z,14.81
2023-05-23T20:40:40.948Z,14.64
2023-05-23T20:43:28.877Z,14.57
2023-05-23T20:46:15.668Z,14.58
2023-05-23T20:49:02.116Z,14.54
2023-05-23T20:51:49.453Z,14.40
2023-05-23T20:54:36.545Z,14.44
2023-05-23T20:57:23.035Z,14.54
2023-05-23T21:00:13.314Z,14.46
2023-05-23T21:02:59.808Z,14.40
2023-05-23T21:05:46.195Z,14.26
2023-05-23T21:08:34.706Z,14.32
2023-05-23T21:11:22.262Z,14.23
2023-05-23T21:14:08.946Z,14.38
2023-05-23T21:16:55.691Z,14.25
2023-05-23T21:19:42.389Z,14.29
2023-05-23T21:22:29.357Z,14.22
2023-05-23T21:25:17.794Z,14.27
2023-05-23T21:28:04.123Z,14.14
2023-05-23T21:30:50.661Z,14.12
2023-05-23T21:33:36.948Z,13.99
2023-05-23T21:36:23.410Z,13.95
2023-05-23T21:39:09.799Z,14.08
2023-05-23T21:41:56.178Z,13.99
2023-05-23T21:44:42.435Z,14.05
2023-05-23T21:47:28.713Z,13.99
2023-05-23T21:50:15.112Z,13.92
2023-05-23T21:53:01.876Z,13.89
2023-05-23T21:55:49.844Z,13.88
2023-05-23T21:58:36.310Z,13.89
2023-05-23T22:01:22.763Z,13.66
2023-05-23T22:04:09.302Z,13.86
2023-05-23T22:06:56.121Z,13.93
2023-05-23T22:09:42.467Z,13.81
2023-05-23T22:12:28.819Z,13.52
2023-05-23T22:15:15.474Z,13.82
2023-05-23T22:18:01.752Z,13.73
2023-05-23T22:20:49.221Z,13.65
2023-05-23T22:23:37.311Z,13.66
2023-05-23T22:26:23.988Z,13.52
2023-05-23T22:29:10.469Z,13.60
2023-05-23T22:31:57.781Z,13.32
2023-05-23T22:34:45.452Z,13.50
2023-05-23T22:37:31.923Z,13.36
2023-05-23T22:40:18.531Z,13.19
2023-05-23T22:43:05.962Z,13.20
2023-05-23T22:45:52.430Z,13.22
2023-05-23T22:48:39.090Z,13.15
2023-05-23T22:51:25.760Z,13.23
2023-05-23T22:54:12.335Z,13.19
2023-05-23T22:56:59.002Z,13.10
2023-05-23T22:59:45.657Z,13.07
2023-05-23T23:02:32.235Z,13.03
2023-05-23T23:05:18.525Z,12.90
2023-05-23T23:08:04.957Z,12.95
2023-05-23T23:10:51.466Z,12.84
2023-05-23T23:13:37.959Z,12.77
2023-05-23T23:16:24.520Z,12.67
2023-05-23T23:19:11.177Z,12.65
2023-05-23T23:21:57.582Z,12.60
2023-05-23T23:24:45.318Z,12.50
2023-05-23T23:27:32.340Z,12.45
2023-05-23T23:30:18.702Z,12.41
2023-05-23T23:33:05.050Z,12.31
2023-05-23T23:35:51.769Z,12.28
2023-05-23T23:38:38.466Z,12.40
2023-05-23T23:41:24.993Z,12.02
2023-05-23T23:44:11.819Z,11.99
2023-05-23T23:46:58.635Z,12.00
2023-05-23T23:49:47.346Z,11.90
2023-05-23T23:52:34.030Z,11.91
2023-05-23T23:55:20.438Z,11.91
2023-05-23T23:58:06.818Z,11.94
